sensor_id;sensor_type;location;lat;lon;timestamp;P1;durP1;ratioP1;P2;durP2;ratioP2
51036;SDS011;37064;59.346;18.058;2023-04-08T00:00:50;2.33;;;1.52;;
51036;SDS011;37064;59.346;18.058;2023-04-08T00:03:16;2.92;;;1.48;;
51036;SDS011;37064;59.346;18.058;2023-04-08T00:05:42;3.85;;;1.70;;
51036;SDS011;37064;59.346;18.058;2023-04-08T00:08:08;2.05;;;1.58;;
51036;SDS011;37064;59.346;18.058;2023-04-08T00:10:34;1.75;;;1.23;;
51036;SDS011;37064;59.346;18.058;2023-04-08T00:13:00;1.88;;;1.17;;
51036;SDS011;37064;59.346;18.058;2023-04-08T00:15:27;2.35;;;1.45;;
51036;SDS011;37064;59.346;18.058;2023-04-08T00:17:52;3.42;;;1.38;;
51036;SDS011;37064;59.346;18.058;2023-04-08T00:20:19;2.53;;;1.38;;
51036;SDS011;37064;59.346;18.058;2023-04-08T00:22:45;2.42;;;1.48;;
51036;SDS011;37064;59.346;18.058;2023-04-08T00:25:11;3.78;;;1.27;;
51036;SDS011;37064;59.346;18.058;2023-04-08T00:27:37;10.32;;;1.75;;
51036;SDS011;37064;59.346;18.058;2023-04-08T00:30:04;1.95;;;1.35;;
51036;SDS011;37064;59.346;18.058;2023-04-08T00:32:30;1.90;;;1.25;;
51036;SDS011;37064;59.346;18.058;2023-04-08T00:34:57;2.45;;;1.50;;
51036;SDS011;37064;59.346;18.058;2023-04-08T00:37:23;2.95;;;1.27;;
51036;SDS011;37064;59.346;18.058;2023-04-08T00:39:49;3.42;;;1.40;;
51036;SDS011;37064;59.346;18.058;2023-04-08T00:42:17;3.63;;;1.25;;
51036;SDS011;37064;59.346;18.058;2023-04-08T00:44:43;1.90;;;1.23;;
51036;SDS011;37064;59.346;18.058;2023-04-08T00:47:13;3.83;;;1.55;;
51036;SDS011;37064;59.346;18.058;2023-04-08T00:49:39;4.07;;;1.27;;
51036;SDS011;37064;59.346;18.058;2023-04-08T00:52:05;1.38;;;1.10;;
51036;SDS011;37064;59.346;18.058;2023-04-08T00:54:31;1.58;;;1.17;;
51036;SDS011;37064;59.346;18.058;2023-04-08T00:56:57;2.00;;;1.13;;
51036;SDS011;37064;59.346;18.058;2023-04-08T00:59:25;2.70;;;1.38;;
51036;SDS011;37064;59.346;18.058;2023-04-08T01:02:06;2.40;;;1.30;;
51036;SDS011;37064;59.346;18.058;2023-04-08T01:04:39;4.13;;;1.30;;
51036;SDS011;37064;59.346;18.058;2023-04-08T01:07:23;1.70;;;1.33;;
51036;SDS011;37064;59.346;18.058;2023-04-08T01:09:54;1.30;;;1.00;;
51036;SDS011;37064;59.346;18.058;2023-04-08T01:12:21;1.95;;;1.20;;
51036;SDS011;37064;59.346;18.058;2023-04-08T01:14:51;1.38;;;0.93;;
51036;SDS011;37064;59.346;18.058;2023-04-08T01:17:20;1.60;;;1.10;;
51036;SDS011;37064;59.346;18.058;2023-04-08T01:19:46;2.58;;;1.10;;
51036;SDS011;37064;59.346;18.058;2023-04-08T01:25:00;1.40;;;1.10;;
51036;SDS011;37064;59.346;18.058;2023-04-08T01:27:27;1.75;;;1.15;;
51036;SDS011;37064;59.346;18.058;2023-04-08T01:29:55;1.73;;;1.42;;
51036;SDS011;37064;59.346;18.058;2023-04-08T01:32:22;2.08;;;1.10;;
51036;SDS011;37064;59.346;18.058;2023-04-08T01:34:48;1.90;;;1.02;;
51036;SDS011;37064;59.346;18.058;2023-04-08T01:37:14;3.40;;;1.83;;
51036;SDS011;37064;59.346;18.058;2023-04-08T01:39:41;3.38;;;1.15;;
51036;SDS011;37064;59.346;18.058;2023-04-08T01:42:07;1.48;;;1.02;;
51036;SDS011;37064;59.346;18.058;2023-04-08T01:44:34;1.58;;;1.08;;
51036;SDS011;37064;59.346;18.058;2023-04-08T01:47:01;5.10;;;1.50;;
51036;SDS011;37064;59.346;18.058;2023-04-08T01:49:27;1.85;;;1.15;;
51036;SDS011;37064;59.346;18.058;2023-04-08T01:51:54;2.65;;;1.00;;
51036;SDS011;37064;59.346;18.058;2023-04-08T01:54:21;2.50;;;1.30;;
51036;SDS011;37064;59.346;18.058;2023-04-08T01:56:47;3.53;;;0.90;;
51036;SDS011;37064;59.346;18.058;2023-04-08T01:59:14;2.38;;;1.10;;
51036;SDS011;37064;59.346;18.058;2023-04-08T02:01:42;1.50;;;0.95;;
51036;SDS011;37064;59.346;18.058;2023-04-08T02:04:09;2.28;;;1.27;;
51036;SDS011;37064;59.346;18.058;2023-04-08T02:06:35;3.22;;;1.00;;
51036;SDS011;37064;59.346;18.058;2023-04-08T02:09:02;1.35;;;1.02;;
51036;SDS011;37064;59.346;18.058;2023-04-08T02:11:28;1.98;;;1.20;;
51036;SDS011;37064;59.346;18.058;2023-04-08T02:13:54;2.67;;;0.93;;
51036;SDS011;37064;59.346;18.058;2023-04-08T02:16:32;1.63;;;1.00;;
51036;SDS011;37064;59.346;18.058;2023-04-08T02:19:07;1.60;;;1.00;;
51036;SDS011;37064;59.346;18.058;2023-04-08T02:21:36;2.70;;;1.30;;
51036;SDS011;37064;59.346;18.058;2023-04-08T02:24:03;2.97;;;1.45;;
51036;SDS011;37064;59.346;18.058;2023-04-08T02:26:30;1.80;;;1.23;;
51036;SDS011;37064;59.346;18.058;2023-04-08T02:28:58;1.85;;;1.13;;
51036;SDS011;37064;59.346;18.058;2023-04-08T02:31:25;1.75;;;1.00;;
51036;SDS011;37064;59.346;18.058;2023-04-08T02:33:51;3.03;;;1.00;;
51036;SDS011;37064;59.346;18.058;2023-04-08T02:36:17;1.92;;;1.10;;
51036;SDS011;37064;59.346;18.058;2023-04-08T02:38:47;3.47;;;1.90;;
51036;SDS011;37064;59.346;18.058;2023-04-08T02:41:14;4.30;;;1.27;;
51036;SDS011;37064;59.346;18.058;2023-04-08T02:43:40;2.10;;;1.10;;
51036;SDS011;37064;59.346;18.058;2023-04-08T02:46:06;1.88;;;1.08;;
51036;SDS011;37064;59.346;18.058;2023-04-08T02:48:33;2.05;;;1.10;;
51036;SDS011;37064;59.346;18.058;2023-04-08T02:50:59;1.73;;;1.00;;
51036;SDS011;37064;59.346;18.058;2023-04-08T02:53:25;3.83;;;0.80;;
51036;SDS011;37064;59.346;18.058;2023-04-08T02:55:51;2.60;;;1.48;;
51036;SDS011;37064;59.346;18.058;2023-04-08T02:58:17;2.05;;;1.20;;
51036;SDS011;37064;59.346;18.058;2023-04-08T03:00:43;2.00;;;1.20;;
51036;SDS011;37064;59.346;18.058;2023-04-08T03:03:10;1.35;;;1.05;;
51036;SDS011;37064;59.346;18.058;2023-04-08T03:05:36;1.80;;;1.00;;
51036;SDS011;37064;59.346;18.058;2023-04-08T03:08:02;1.88;;;0.90;;
51036;SDS011;37064;59.346;18.058;2023-04-08T03:10:28;2.58;;;0.98;;
51036;SDS011;37064;59.346;18.058;2023-04-08T03:12:54;2.30;;;1.33;;
51036;SDS011;37064;59.346;18.058;2023-04-08T03:15:20;2.38;;;1.15;;
51036;SDS011;37064;59.346;18.058;2023-04-08T03:17:46;1.25;;;0.93;;
51036;SDS011;37064;59.346;18.058;2023-04-08T03:20:12;2.20;;;1.15;;
51036;SDS011;37064;59.346;18.058;2023-04-08T03:22:38;1.25;;;0.90;;
51036;SDS011;37064;59.346;18.058;2023-04-08T03:25:04;1.15;;;0.90;;
51036;SDS011;37064;59.346;18.058;2023-04-08T03:27:30;1.15;;;0.85;;
51036;SDS011;37064;59.346;18.058;2023-04-08T03:29:56;1.25;;;1.10;;
51036;SDS011;37064;59.346;18.058;2023-04-08T03:32:22;2.20;;;0.93;;
51036;SDS011;37064;59.346;18.058;2023-04-08T03:34:48;4.65;;;2.15;;
51036;SDS011;37064;59.346;18.058;2023-04-08T03:37:15;1.17;;;1.02;;
51036;SDS011;37064;59.346;18.058;2023-04-08T03:39:41;1.10;;;0.95;;
51036;SDS011;37064;59.346;18.058;2023-04-08T03:42:07;1.70;;;1.20;;
51036;SDS011;37064;59.346;18.058;2023-04-08T03:44:33;1.45;;;0.98;;
51036;SDS011;37064;59.346;18.058;2023-04-08T03:46:59;1.73;;;1.50;;
51036;SDS011;37064;59.346;18.058;2023-04-08T03:49:25;1.80;;;1.02;;
51036;SDS011;37064;59.346;18.058;2023-04-08T03:51:51;4.85;;;1.17;;
51036;SDS011;37064;59.346;18.058;2023-04-08T03:54:17;1.73;;;1.02;;
51036;SDS011;37064;59.346;18.058;2023-04-08T03:56:43;2.95;;;1.05;;
51036;SDS011;37064;59.346;18.058;2023-04-08T03:59:09;2.88;;;1.08;;
51036;SDS011;37064;59.346;18.058;2023-04-08T04:01:35;2.85;;;1.60;;
51036;SDS011;37064;59.346;18.058;2023-04-08T04:04:01;2.65;;;1.10;;
51036;SDS011;37064;59.346;18.058;2023-04-08T04:06:27;1.10;;;0.90;;
51036;SDS011;37064;59.346;18.058;2023-04-08T04:08:53;1.20;;;0.73;;
51036;SDS011;37064;59.346;18.058;2023-04-08T04:11:19;1.80;;;1.00;;
51036;SDS011;37064;59.346;18.058;2023-04-08T04:13:46;2.13;;;1.10;;
51036;SDS011;37064;59.346;18.058;2023-04-08T04:16:13;2.38;;;1.05;;
51036;SDS011;37064;59.346;18.058;2023-04-08T04:18:39;1.73;;;1.02;;
51036;SDS011;37064;59.346;18.058;2023-04-08T04:21:05;1.52;;;1.13;;
51036;SDS011;37064;59.346;18.058;2023-04-08T04:23:31;3.08;;;1.52;;
51036;SDS011;37064;59.346;18.058;2023-04-08T04:25:57;1.67;;;0.95;;
51036;SDS011;37064;59.346;18.058;2023-04-08T04:28:23;1.75;;;0.85;;
51036;SDS011;37064;59.346;18.058;2023-04-08T04:30:49;1.10;;;0.80;;
51036;SDS011;37064;59.346;18.058;2023-04-08T04:33:15;4.32;;;1.08;;
51036;SDS011;37064;59.346;18.058;2023-04-08T04:35:41;1.67;;;1.00;;
51036;SDS011;37064;59.346;18.058;2023-04-08T04:38:08;1.10;;;0.88;;
51036;SDS011;37064;59.346;18.058;2023-04-08T04:40:37;2.00;;;1.10;;
51036;SDS011;37064;59.346;18.058;2023-04-08T04:43:03;1.80;;;1.13;;
51036;SDS011;37064;59.346;18.058;2023-04-08T04:45:29;1.60;;;1.10;;
51036;SDS011;37064;59.346;18.058;2023-04-08T04:47:55;2.72;;;0.90;;
51036;SDS011;37064;59.346;18.058;2023-04-08T04:50:21;1.75;;;0.90;;
51036;SDS011;37064;59.346;18.058;2023-04-08T04:52:48;1.27;;;0.82;;
51036;SDS011;37064;59.346;18.058;2023-04-08T04:55:14;1.38;;;0.90;;
51036;SDS011;37064;59.346;18.058;2023-04-08T04:57:40;1.65;;;0.90;;
51036;SDS011;37064;59.346;18.058;2023-04-08T05:00:06;2.22;;;0.95;;
51036;SDS011;37064;59.346;18.058;2023-04-08T05:02:33;2.30;;;1.05;;
51036;SDS011;37064;59.346;18.058;2023-04-08T05:04:59;1.85;;;0.90;;
51036;SDS011;37064;59.346;18.058;2023-04-08T05:07:25;1.17;;;0.98;;
51036;SDS011;37064;59.346;18.058;2023-04-08T05:09:51;1.33;;;1.00;;
51036;SDS011;37064;59.346;18.058;2023-04-08T05:12:17;1.45;;;1.00;;
51036;SDS011;37064;59.346;18.058;2023-04-08T05:14:44;0.88;;;0.80;;
51036;SDS011;37064;59.346;18.058;2023-04-08T05:17:10;2.75;;;1.00;;
51036;SDS011;37064;59.346;18.058;2023-04-08T05:19:36;2.10;;;0.82;;
51036;SDS011;37064;59.346;18.058;2023-04-08T05:22:02;0.98;;;0.80;;
51036;SDS011;37064;59.346;18.058;2023-04-08T05:24:28;1.15;;;0.73;;
51036;SDS011;37064;59.346;18.058;2023-04-08T05:26:54;1.88;;;1.15;;
51036;SDS011;37064;59.346;18.058;2023-04-08T05:29:21;1.10;;;0.80;;
51036;SDS011;37064;59.346;18.058;2023-04-08T05:31:47;0.98;;;0.68;;
51036;SDS011;37064;59.346;18.058;2023-04-08T05:34:13;2.10;;;0.85;;
51036;SDS011;37064;59.346;18.058;2023-04-08T05:36:43;0.85;;;0.65;;
51036;SDS011;37064;59.346;18.058;2023-04-08T05:39:09;1.88;;;0.90;;
51036;SDS011;37064;59.346;18.058;2023-04-08T05:41:35;1.00;;;0.80;;
51036;SDS011;37064;59.346;18.058;2023-04-08T05:44:01;1.83;;;0.90;;
51036;SDS011;37064;59.346;18.058;2023-04-08T05:46:27;2.25;;;0.80;;
51036;SDS011;37064;59.346;18.058;2023-04-08T05:48:53;5.75;;;1.10;;
51036;SDS011;37064;59.346;18.058;2023-04-08T05:51:19;2.55;;;1.02;;
51036;SDS011;37064;59.346;18.058;2023-04-08T05:53:45;1.75;;;0.80;;
51036;SDS011;37064;59.346;18.058;2023-04-08T05:56:11;4.35;;;0.90;;
51036;SDS011;37064;59.346;18.058;2023-04-08T05:58:37;1.95;;;1.00;;
51036;SDS011;37064;59.346;18.058;2023-04-08T06:01:03;1.85;;;0.80;;
51036;SDS011;37064;59.346;18.058;2023-04-08T06:03:31;5.25;;;1.00;;
51036;SDS011;37064;59.346;18.058;2023-04-08T06:05:57;3.13;;;0.90;;
51036;SDS011;37064;59.346;18.058;2023-04-08T06:08:23;1.23;;;0.73;;
51036;SDS011;37064;59.346;18.058;2023-04-08T06:10:49;1.80;;;0.90;;
51036;SDS011;37064;59.346;18.058;2023-04-08T06:13:15;0.75;;;0.60;;
51036;SDS011;37064;59.346;18.058;2023-04-08T06:15:41;2.58;;;1.52;;
51036;SDS011;37064;59.346;18.058;2023-04-08T06:18:07;1.38;;;1.00;;
51036;SDS011;37064;59.346;18.058;2023-04-08T06:20:34;1.65;;;0.90;;
51036;SDS011;37064;59.346;18.058;2023-04-08T06:23:00;2.22;;;1.02;;
51036;SDS011;37064;59.346;18.058;2023-04-08T06:25:26;1.38;;;1.00;;
51036;SDS011;37064;59.346;18.058;2023-04-08T06:27:52;1.17;;;0.80;;
51036;SDS011;37064;59.346;18.058;2023-04-08T06:30:18;0.70;;;0.65;;
51036;SDS011;37064;59.346;18.058;2023-04-08T06:32:44;1.40;;;1.00;;
51036;SDS011;37064;59.346;18.058;2023-04-08T06:35:13;1.98;;;0.88;;
51036;SDS011;37064;59.346;18.058;2023-04-08T06:37:39;1.83;;;1.23;;
51036;SDS011;37064;59.346;18.058;2023-04-08T06:40:05;1.50;;;0.90;;
51036;SDS011;37064;59.346;18.058;2023-04-08T06:42:32;1.10;;;0.73;;
51036;SDS011;37064;59.346;18.058;2023-04-08T06:44:58;2.05;;;1.00;;
51036;SDS011;37064;59.346;18.058;2023-04-08T06:47:24;1.95;;;1.13;;
51036;SDS011;37064;59.346;18.058;2023-04-08T06:49:50;2.58;;;0.70;;
51036;SDS011;37064;59.346;18.058;2023-04-08T06:52:16;1.98;;;0.70;;
51036;SDS011;37064;59.346;18.058;2023-04-08T06:54:42;2.88;;;1.48;;
51036;SDS011;37064;59.346;18.058;2023-04-08T06:57:08;1.20;;;0.90;;
51036;SDS011;37064;59.346;18.058;2023-04-08T06:59:35;1.27;;;0.95;;
51036;SDS011;37064;59.346;18.058;2023-04-08T07:02:02;1.33;;;0.77;;
51036;SDS011;37064;59.346;18.058;2023-04-08T07:04:28;1.20;;;0.82;;
51036;SDS011;37064;59.346;18.058;2023-04-08T07:06:54;1.73;;;0.80;;
51036;SDS011;37064;59.346;18.058;2023-04-08T07:09:20;1.80;;;1.00;;
51036;SDS011;37064;59.346;18.058;2023-04-08T07:11:46;1.20;;;0.80;;
51036;SDS011;37064;59.346;18.058;2023-04-08T07:14:12;2.50;;;0.98;;
51036;SDS011;37064;59.346;18.058;2023-04-08T07:16:38;1.85;;;1.00;;
51036;SDS011;37064;59.346;18.058;2023-04-08T07:19:04;1.95;;;0.82;;
51036;SDS011;37064;59.346;18.058;2023-04-08T07:21:30;1.25;;;0.77;;
51036;SDS011;37064;59.346;18.058;2023-04-08T07:23:56;1.55;;;1.00;;
51036;SDS011;37064;59.346;18.058;2023-04-08T07:26:22;3.10;;;0.80;;
51036;SDS011;37064;59.346;18.058;2023-04-08T07:28:48;0.90;;;0.70;;
51036;SDS011;37064;59.346;18.058;2023-04-08T07:31:16;1.15;;;0.90;;
51036;SDS011;37064;59.346;18.058;2023-04-08T07:33:43;1.45;;;1.05;;
51036;SDS011;37064;59.346;18.058;2023-04-08T07:36:10;1.60;;;0.70;;
51036;SDS011;37064;59.346;18.058;2023-04-08T07:38:36;1.42;;;0.70;;
51036;SDS011;37064;59.346;18.058;2023-04-08T07:41:03;4.82;;;1.00;;
51036;SDS011;37064;59.346;18.058;2023-04-08T07:43:29;3.72;;;1.10;;
51036;SDS011;37064;59.346;18.058;2023-04-08T07:46:00;1.92;;;0.85;;
51036;SDS011;37064;59.346;18.058;2023-04-08T07:48:29;1.48;;;0.98;;
51036;SDS011;37064;59.346;18.058;2023-04-08T07:50:55;1.02;;;0.80;;
51036;SDS011;37064;59.346;18.058;2023-04-08T07:53:21;1.05;;;0.70;;
51036;SDS011;37064;59.346;18.058;2023-04-08T07:55:49;4.07;;;0.65;;
51036;SDS011;37064;59.346;18.058;2023-04-08T07:58:15;2.55;;;0.85;;
51036;SDS011;37064;59.346;18.058;2023-04-08T08:00:41;2.03;;;0.68;;
51036;SDS011;37064;59.346;18.058;2023-04-08T08:03:07;2.95;;;0.80;;
51036;SDS011;37064;59.346;18.058;2023-04-08T08:05:34;3.25;;;0.80;;
51036;SDS011;37064;59.346;18.058;2023-04-08T08:08:01;2.17;;;0.70;;
51036;SDS011;37064;59.346;18.058;2023-04-08T08:10:27;1.45;;;0.90;;
51036;SDS011;37064;59.346;18.058;2023-04-08T08:12:53;2.75;;;0.60;;
51036;SDS011;37064;59.346;18.058;2023-04-08T08:15:19;2.15;;;0.70;;
51036;SDS011;37064;59.346;18.058;2023-04-08T08:17:45;1.05;;;0.70;;
51036;SDS011;37064;59.346;18.058;2023-04-08T08:20:11;1.45;;;0.90;;
51036;SDS011;37064;59.346;18.058;2023-04-08T08:22:37;2.20;;;0.80;;
51036;SDS011;37064;59.346;18.058;2023-04-08T08:25:03;1.65;;;0.60;;
51036;SDS011;37064;59.346;18.058;2023-04-08T08:27:29;0.93;;;0.68;;
51036;SDS011;37064;59.346;18.058;2023-04-08T08:29:58;0.98;;;0.60;;
51036;SDS011;37064;59.346;18.058;2023-04-08T08:32:24;1.98;;;0.68;;
51036;SDS011;37064;59.346;18.058;2023-04-08T08:34:50;1.67;;;0.60;;
51036;SDS011;37064;59.346;18.058;2023-04-08T08:37:16;1.30;;;0.80;;
51036;SDS011;37064;59.346;18.058;2023-04-08T08:39:42;1.25;;;0.98;;
51036;SDS011;37064;59.346;18.058;2023-04-08T08:42:17;1.55;;;0.90;;
51036;SDS011;37064;59.346;18.058;2023-04-08T08:44:44;2.20;;;0.70;;
51036;SDS011;37064;59.346;18.058;2023-04-08T08:47:10;1.13;;;0.73;;
51036;SDS011;37064;59.346;18.058;2023-04-08T08:49:36;2.10;;;0.60;;
51036;SDS011;37064;59.346;18.058;2023-04-08T08:52:02;1.00;;;0.70;;
51036;SDS011;37064;59.346;18.058;2023-04-08T08:54:28;0.90;;;0.60;;
51036;SDS011;37064;59.346;18.058;2023-04-08T08:56:55;1.48;;;0.60;;
51036;SDS011;37064;59.346;18.058;2023-04-08T08:59:21;1.25;;;0.70;;
51036;SDS011;37064;59.346;18.058;2023-04-08T09:01:47;0.85;;;0.50;;
51036;SDS011;37064;59.346;18.058;2023-04-08T09:04:14;0.73;;;0.60;;
51036;SDS011;37064;59.346;18.058;2023-04-08T09:06:42;1.40;;;0.60;;
51036;SDS011;37064;59.346;18.058;2023-04-08T09:09:08;0.70;;;0.50;;
51036;SDS011;37064;59.346;18.058;2023-04-08T09:11:35;2.35;;;0.70;;
51036;SDS011;37064;59.346;18.058;2023-04-08T09:14:02;3.33;;;0.50;;
51036;SDS011;37064;59.346;18.058;2023-04-08T09:16:28;3.55;;;0.60;;
51036;SDS011;37064;59.346;18.058;2023-04-08T09:18:56;1.08;;;0.60;;
51036;SDS011;37064;59.346;18.058;2023-04-08T09:21:32;0.85;;;0.75;;
51036;SDS011;37064;59.346;18.058;2023-04-08T09:23:59;0.80;;;0.60;;
51036;SDS011;37064;59.346;18.058;2023-04-08T09:26:25;2.25;;;1.15;;
51036;SDS011;37064;59.346;18.058;2023-04-08T09:31:30;3.40;;;0.57;;
51036;SDS011;37064;59.346;18.058;2023-04-08T09:33:57;3.70;;;0.73;;
51036;SDS011;37064;59.346;18.058;2023-04-08T09:36:23;1.05;;;0.65;;
51036;SDS011;37064;59.346;18.058;2023-04-08T09:38:53;1.27;;;0.70;;
51036;SDS011;37064;59.346;18.058;2023-04-08T09:41:19;0.77;;;0.65;;
51036;SDS011;37064;59.346;18.058;2023-04-08T09:43:48;4.70;;;1.13;;
51036;SDS011;37064;59.346;18.058;2023-04-08T09:46:16;1.55;;;0.60;;
51036;SDS011;37064;59.346;18.058;2023-04-08T09:48:48;1.52;;;0.60;;
51036;SDS011;37064;59.346;18.058;2023-04-08T09:51:15;1.25;;;0.75;;
51036;SDS011;37064;59.346;18.058;2023-04-08T09:53:45;1.05;;;0.77;;
51036;SDS011;37064;59.346;18.058;2023-04-08T09:56:11;1.05;;;0.70;;
51036;SDS011;37064;59.346;18.058;2023-04-08T09:58:40;0.50;;;0.40;;
51036;SDS011;37064;59.346;18.058;2023-04-08T10:01:06;3.45;;;1.15;;
51036;SDS011;37064;59.346;18.058;2023-04-08T10:03:35;1.48;;;0.65;;
51036;SDS011;37064;59.346;18.058;2023-04-08T10:06:03;0.90;;;0.60;;
51036;SDS011;37064;59.346;18.058;2023-04-08T10:08:30;0.98;;;0.88;;
51036;SDS011;37064;59.346;18.058;2023-04-08T10:10:57;0.43;;;0.30;;
51036;SDS011;37064;59.346;18.058;2023-04-08T10:13:23;0.45;;;0.40;;
51036;SDS011;37064;59.346;18.058;2023-04-08T10:15:53;1.45;;;0.50;;
51036;SDS011;37064;59.346;18.058;2023-04-08T10:18:38;0.98;;;0.60;;
51036;SDS011;37064;59.346;18.058;2023-04-08T10:21:04;0.88;;;0.40;;
51036;SDS011;37064;59.346;18.058;2023-04-08T10:23:51;0.85;;;0.50;;
51036;SDS011;37064;59.346;18.058;2023-04-08T10:26:31;5.25;;;1.58;;
51036;SDS011;37064;59.346;18.058;2023-04-08T10:29:31;2.17;;;0.50;;
51036;SDS011;37064;59.346;18.058;2023-04-08T10:31:51;1.73;;;0.55;;
51036;SDS011;37064;59.346;18.058;2023-04-08T10:34:21;0.88;;;0.57;;
51036;SDS011;37064;59.346;18.058;2023-04-08T10:36:48;0.35;;;0.30;;
51036;SDS011;37064;59.346;18.058;2023-04-08T10:39:15;1.75;;;0.55;;
51036;SDS011;37064;59.346;18.058;2023-04-08T10:41:41;1.45;;;0.55;;
51036;SDS011;37064;59.346;18.058;2023-04-08T10:44:23;1.10;;;0.70;;
51036;SDS011;37064;59.346;18.058;2023-04-08T10:46:51;0.70;;;0.70;;
51036;SDS011;37064;59.346;18.058;2023-04-08T10:49:17;1.75;;;0.50;;
51036;SDS011;37064;59.346;18.058;2023-04-08T10:51:43;0.75;;;0.57;;
51036;SDS011;37064;59.346;18.058;2023-04-08T10:54:11;0.80;;;0.55;;
51036;SDS011;37064;59.346;18.058;2023-04-08T10:56:43;0.98;;;0.50;;
51036;SDS011;37064;59.346;18.058;2023-04-08T10:59:10;2.20;;;0.60;;
51036;SDS011;37064;59.346;18.058;2023-04-08T11:01:40;1.08;;;0.47;;
51036;SDS011;37064;59.346;18.058;2023-04-08T11:04:11;4.82;;;0.70;;
51036;SDS011;37064;59.346;18.058;2023-04-08T11:06:38;0.63;;;0.40;;
51036;SDS011;37064;59.346;18.058;2023-04-08T11:09:04;0.88;;;0.50;;
51036;SDS011;37064;59.346;18.058;2023-04-08T11:11:30;1.08;;;0.68;;
51036;SDS011;37064;59.346;18.058;2023-04-08T11:13:56;3.90;;;0.50;;
51036;SDS011;37064;59.346;18.058;2023-04-08T11:16:22;0.70;;;0.40;;
51036;SDS011;37064;59.346;18.058;2023-04-08T11:18:49;0.98;;;0.50;;
51036;SDS011;37064;59.346;18.058;2023-04-08T11:21:15;2.53;;;0.60;;
51036;SDS011;37064;59.346;18.058;2023-04-08T11:23:42;1.08;;;0.40;;
51036;SDS011;37064;59.346;18.058;2023-04-08T11:26:08;0.60;;;0.50;;
51036;SDS011;37064;59.346;18.058;2023-04-08T11:28:35;1.08;;;0.47;;
51036;SDS011;37064;59.346;18.058;2023-04-08T11:31:01;0.90;;;0.43;;
51036;SDS011;37064;59.346;18.058;2023-04-08T11:33:31;0.60;;;0.45;;
51036;SDS011;37064;59.346;18.058;2023-04-08T11:35:59;0.70;;;0.50;;
51036;SDS011;37064;59.346;18.058;2023-04-08T11:38:25;1.05;;;0.43;;
51036;SDS011;37064;59.346;18.058;2023-04-08T11:40:52;0.47;;;0.30;;
51036;SDS011;37064;59.346;18.058;2023-04-08T11:43:18;0.93;;;0.30;;
51036;SDS011;37064;59.346;18.058;2023-04-08T11:45:44;0.57;;;0.45;;
51036;SDS011;37064;59.346;18.058;2023-04-08T11:48:11;0.57;;;0.40;;
51036;SDS011;37064;59.346;18.058;2023-04-08T11:50:38;1.08;;;0.50;;
51036;SDS011;37064;59.346;18.058;2023-04-08T11:53:14;0.90;;;0.57;;
51036;SDS011;37064;59.346;18.058;2023-04-08T11:55:41;0.60;;;0.40;;
51036;SDS011;37064;59.346;18.058;2023-04-08T11:58:07;0.82;;;0.40;;
51036;SDS011;37064;59.346;18.058;2023-04-08T12:00:33;0.93;;;0.50;;
51036;SDS011;37064;59.346;18.058;2023-04-08T12:02:59;1.08;;;0.50;;
51036;SDS011;37064;59.346;18.058;2023-04-08T12:05:25;0.88;;;0.47;;
51036;SDS011;37064;59.346;18.058;2023-04-08T12:07:51;0.63;;;0.40;;
51036;SDS011;37064;59.346;18.058;2023-04-08T12:10:17;0.77;;;0.50;;
51036;SDS011;37064;59.346;18.058;2023-04-08T12:12:43;0.85;;;0.70;;
51036;SDS011;37064;59.346;18.058;2023-04-08T12:15:10;1.27;;;0.50;;
51036;SDS011;37064;59.346;18.058;2023-04-08T12:17:36;1.00;;;0.40;;
51036;SDS011;37064;59.346;18.058;2023-04-08T12:22:31;0.38;;;0.32;;
51036;SDS011;37064;59.346;18.058;2023-04-08T12:24:57;0.60;;;0.35;;
51036;SDS011;37064;59.346;18.058;2023-04-08T12:27:23;1.55;;;0.52;;
51036;SDS011;37064;59.346;18.058;2023-04-08T12:29:49;1.75;;;0.55;;
51036;SDS011;37064;59.346;18.058;2023-04-08T12:32:17;6.22;;;0.52;;
51036;SDS011;37064;59.346;18.058;2023-04-08T12:34:43;0.85;;;0.60;;
51036;SDS011;37064;59.346;18.058;2023-04-08T12:37:09;2.10;;;0.60;;
51036;SDS011;37064;59.346;18.058;2023-04-08T12:39:35;1.48;;;0.50;;
51036;SDS011;37064;59.346;18.058;2023-04-08T12:42:02;1.02;;;0.50;;
51036;SDS011;37064;59.346;18.058;2023-04-08T12:44:28;0.93;;;0.40;;
51036;SDS011;37064;59.346;18.058;2023-04-08T12:46:54;1.58;;;0.40;;
51036;SDS011;37064;59.346;18.058;2023-04-08T12:49:22;1.00;;;0.47;;
51036;SDS011;37064;59.346;18.058;2023-04-08T12:51:48;1.05;;;0.70;;
51036;SDS011;37064;59.346;18.058;2023-04-08T12:54:14;2.95;;;0.80;;
51036;SDS011;37064;59.346;18.058;2023-04-08T12:56:41;1.23;;;0.52;;
51036;SDS011;37064;59.346;18.058;2023-04-08T12:59:10;1.85;;;0.50;;
51036;SDS011;37064;59.346;18.058;2023-04-08T13:01:36;1.13;;;0.50;;
51036;SDS011;37064;59.346;18.058;2023-04-08T13:04:02;1.75;;;0.60;;
51036;SDS011;37064;59.346;18.058;2023-04-08T13:06:28;0.60;;;0.50;;
51036;SDS011;37064;59.346;18.058;2023-04-08T13:08:55;2.38;;;0.57;;
51036;SDS011;37064;59.346;18.058;2023-04-08T13:11:22;2.28;;;0.50;;
51036;SDS011;37064;59.346;18.058;2023-04-08T13:13:48;1.17;;;0.63;;
51036;SDS011;37064;59.346;18.058;2023-04-08T13:16:14;1.40;;;0.60;;
51036;SDS011;37064;59.346;18.058;2023-04-08T13:18:40;1.83;;;0.60;;
51036;SDS011;37064;59.346;18.058;2023-04-08T13:21:07;1.05;;;0.57;;
51036;SDS011;37064;59.346;18.058;2023-04-08T13:23:33;0.90;;;0.77;;
51036;SDS011;37064;59.346;18.058;2023-04-08T13:25:59;1.35;;;0.73;;
51036;SDS011;37064;59.346;18.058;2023-04-08T13:28:25;0.40;;;0.32;;
51036;SDS011;37064;59.346;18.058;2023-04-08T13:30:51;0.98;;;0.50;;
51036;SDS011;37064;59.346;18.058;2023-04-08T13:33:17;0.85;;;0.60;;
51036;SDS011;37064;59.346;18.058;2023-04-08T13:35:43;0.65;;;0.43;;
51036;SDS011;37064;59.346;18.058;2023-04-08T13:38:10;0.75;;;0.60;;
51036;SDS011;37064;59.346;18.058;2023-04-08T13:40:36;1.13;;;0.80;;
51036;SDS011;37064;59.346;18.058;2023-04-08T13:43:02;0.55;;;0.40;;
51036;SDS011;37064;59.346;18.058;2023-04-08T13:45:28;1.52;;;0.60;;
51036;SDS011;37064;59.346;18.058;2023-04-08T13:47:56;0.80;;;0.43;;
51036;SDS011;37064;59.346;18.058;2023-04-08T13:50:22;2.45;;;0.50;;
51036;SDS011;37064;59.346;18.058;2023-04-08T13:52:48;1.02;;;0.60;;
51036;SDS011;37064;59.346;18.058;2023-04-08T13:55:14;1.20;;;0.85;;
51036;SDS011;37064;59.346;18.058;2023-04-08T13:57:40;0.60;;;0.40;;
51036;SDS011;37064;59.346;18.058;2023-04-08T14:00:06;0.77;;;0.50;;
51036;SDS011;37064;59.346;18.058;2023-04-08T14:02:33;1.15;;;0.70;;
51036;SDS011;37064;59.346;18.058;2023-04-08T14:04:59;0.88;;;0.50;;
51036;SDS011;37064;59.346;18.058;2023-04-08T14:07:25;1.15;;;0.60;;
51036;SDS011;37064;59.346;18.058;2023-04-08T14:09:51;1.00;;;0.50;;
51036;SDS011;37064;59.346;18.058;2023-04-08T14:12:17;0.93;;;0.50;;
51036;SDS011;37064;59.346;18.058;2023-04-08T14:14:43;7.18;;;1.23;;
51036;SDS011;37064;59.346;18.058;2023-04-08T14:17:09;0.65;;;0.40;;
51036;SDS011;37064;59.346;18.058;2023-04-08T14:19:35;0.90;;;0.40;;
51036;SDS011;37064;59.346;18.058;2023-04-08T14:22:01;0.68;;;0.40;;
51036;SDS011;37064;59.346;18.058;2023-04-08T14:24:27;1.95;;;0.60;;
51036;SDS011;37064;59.346;18.058;2023-04-08T14:26:53;3.15;;;0.90;;
51036;SDS011;37064;59.346;18.058;2023-04-08T14:29:19;1.20;;;0.98;;
51036;SDS011;37064;59.346;18.058;2023-04-08T14:31:45;1.48;;;0.60;;
51036;SDS011;37064;59.346;18.058;2023-04-08T14:34:11;1.65;;;0.50;;
51036;SDS011;37064;59.346;18.058;2023-04-08T14:36:37;1.77;;;0.50;;
51036;SDS011;37064;59.346;18.058;2023-04-08T14:39:03;5.20;;;0.70;;